Home   Weather   France   Strasbourg   Past weeks
Flag for France

Past Weather in Strasbourg, Grand-Est, France — Yesterday and Last 2 Weeks

Currently: 68 °F. Partly sunny. (Weather station: Strasbourg Airport, France). See more current weather

Past Weather in Strasbourg — Graph

°F

Strasbourg Temperature Yesterday

Maximum temperature yesterday: 61 °F (at 2:30 pm)
Minimum temperature yesterday: 45 °F (at 12:00 am)
Average temperature yesterday: 54 °F

High & Low Weather Summary for the Past Weeks

 TemperatureHumidityPressure
High68 °F (Sep 22, 3:00 pm)100% (Sep 20, 7:00 am)30.30 "Hg (Sep 20, 7:00 am)
Low39 °F (Sep 22, 7:30 am)35% (Sep 22, 4:00 pm)29.45 "Hg (Sep 28, 4:30 am)
Average54 °F79%29.94 "Hg
* Reported Sep 17 3:00 pm — Oct 2 3:00 pm, Strasbourg. Weather by CustomWeather, © 2022

Note: Actual official high and low records may vary slightly from our data, if they occured in-between our weather recording intervals... More about our weather records

Strasbourg Weather History for the Previous 24 Hours

Scroll right to see more
 ConditionsComfort  
Time TempWeatherWind HumidityBarometerVisibility
3:00 pm
Sun, Oct 2
66 °FMostly cloudy.7 mph88%30.09 "HgN/A
2:30 pm66 °FPartly sunny.7 mph88%30.09 "HgN/A
2:00 pm66 °FPartly sunny.10 mph88%30.09 "HgN/A
1:30 pm64 °FMostly cloudy.10 mph88%30.09 "HgN/A
1:00 pm66 °FMostly cloudy.7 mph78%30.09 "HgN/A
12:30 pm66 °FMostly cloudy.9 mph73%30.09 "HgN/A
12:00 pm66 °FMostly cloudy.12 mph73%30.12 "HgN/A
11:30 am68 °FMostly cloudy.12 mph73%30.09 "HgN/A
11:00 am64 °FMostly cloudy.9 mph83%30.12 "HgN/A
10:30 am63 °FOvercast.10 mph83%30.12 "HgN/A
9:30 am61 °FPartly sunny.9 mph88%30.12 "HgN/A
9:00 am61 °FMostly cloudy.12 mph88%30.12 "HgN/A
8:30 am59 °FOvercast.12 mph88%30.12 "HgN/A
8:00 am59 °FOvercast.7 mph88%30.12 "HgN/A
7:00 am57 °FPartly cloudy.6 mph94%30.12 "HgN/A
6:30 am57 °FOvercast.7 mph88%30.15 "HgN/A
6:00 am59 °FPassing clouds.8 mph82%30.15 "HgN/A
5:30 am59 °FPassing clouds.7 mph82%30.15 "HgN/A
5:00 am59 °FMostly cloudy.8 mph82%30.15 "HgN/A
4:30 am59 °FOvercast.8 mph82%30.15 "HgN/A
4:00 am59 °FMostly cloudy.8 mph82%30.15 "HgN/A
3:30 am59 °FMostly cloudy.8 mph82%30.15 "HgN/A
3:00 am59 °FMostly cloudy.9 mph82%30.15 "HgN/A
1:30 am55 °FClear.12 mph94%30.12 "Hg10 mi
1:00 am57 °FPartly cloudy.10 mph82%30.12 "HgN/A
12:00 am57 °FOvercast.5 mph82%30.09 "HgN/A
11:30 pm
Sat, Oct 1
59 °FPassing clouds.8 mph77%30.09 "HgN/A
11:00 pm61 °FOvercast.10 mph72%30.09 "HgN/A
10:30 pm61 °FClear.12 mph72%30.07 "Hg10 mi
10:00 pm59 °FClear.12 mph77%30.07 "Hg10 mi
9:30 pm59 °FMostly cloudy.10 mph77%30.04 "HgN/A
9:00 pm57 °FPartly cloudy.9 mph82%30.04 "HgN/A
8:30 pm59 °FPartly cloudy.10 mph77%30.01 "HgN/A
8:00 pm59 °FPassing clouds.12 mph77%30.01 "HgN/A
7:30 pm59 °FPassing clouds.12 mph77%30.01 "HgN/A
7:00 pm59 °FMostly cloudy.13 mph77%29.98 "HgN/A
6:30 pm61 °FMostly cloudy.14 mph72%29.98 "HgN/A
6:00 pm61 °FMostly cloudy.15 mph72%29.95 "HgN/A
5:30 pm61 °FPartly sunny.14 mph72%29.95 "HgN/A
5:00 pm59 °FMostly cloudy.12 mph77%29.95 "HgN/A
4:30 pm59 °FMostly cloudy.13 mph77%29.95 "HgN/A
4:00 pm59 °FOvercast.13 mph77%29.95 "HgN/A
Weather by CustomWeather, © 2022

See weather overview